sensor_id;sensor_type;location;lat;lon;timestamp;temperature;humidity
25923;DHT22;13725;51.170;4.442;2022-12-29T00:01:37;10.70;99.90
25923;DHT22;13725;51.170;4.442;2022-12-29T00:04:04;10.70;99.90
25923;DHT22;13725;51.170;4.442;2022-12-29T00:06:30;10.70;99.90
25923;DHT22;13725;51.170;4.442;2022-12-29T00:08:56;10.80;99.90
25923;DHT22;13725;51.170;4.442;2022-12-29T00:11:26;10.80;99.90
25923;DHT22;13725;51.170;4.442;2022-12-29T00:13:53;10.90;99.90
25923;DHT22;13725;51.170;4.442;2022-12-29T00:16:39;10.90;99.90
25923;DHT22;13725;51.170;4.442;2022-12-29T00:19:05;10.90;99.90
25923;DHT22;13725;51.170;4.442;2022-12-29T00:21:31;10.90;99.90
25923;DHT22;13725;51.170;4.442;2022-12-29T00:24:17;10.90;99.90
25923;DHT22;13725;51.170;4.442;2022-12-29T00:29:45;11.00;99.90
25923;DHT22;13725;51.170;4.442;2022-12-29T00:32:30;10.90;99.90
25923;DHT22;13725;51.170;4.442;2022-12-29T00:35:28;11.00;99.90
25923;DHT22;13725;51.170;4.442;2022-12-29T00:37:57;11.00;99.90
25923;DHT22;13725;51.170;4.442;2022-12-29T00:40:43;11.00;99.90
25923;DHT22;13725;51.170;4.442;2022-12-29T00:43:27;11.00;99.90
25923;DHT22;13725;51.170;4.442;2022-12-29T00:46:11;11.00;99.90
25923;DHT22;13725;51.170;4.442;2022-12-29T00:48:37;11.00;99.90
25923;DHT22;13725;51.170;4.442;2022-12-29T00:51:21;11.10;99.90
25923;DHT22;13725;51.170;4.442;2022-12-29T00:53:47;11.20;99.90
25923;DHT22;13725;51.170;4.442;2022-12-29T00:56:13;11.10;99.90
25923;DHT22;13725;51.170;4.442;2022-12-29T00:58:38;11.10;99.90
25923;DHT22;13725;51.170;4.442;2022-12-29T01:01:07;11.20;99.90
25923;DHT22;13725;51.170;4.442;2022-12-29T01:03:35;11.20;99.90
25923;DHT22;13725;51.170;4.442;2022-12-29T01:06:05;11.20;99.90
25923;DHT22;13725;51.170;4.442;2022-12-29T01:08:31;11.20;99.90
25923;DHT22;13725;51.170;4.442;2022-12-29T01:11:02;11.40;99.90
25923;DHT22;13725;51.170;4.442;2022-12-29T01:13:28;11.20;99.90
25923;DHT22;13725;51.170;4.442;2022-12-29T01:15:54;11.10;99.90
25923;DHT22;13725;51.170;4.442;2022-12-29T01:18:21;11.40;99.90
25923;DHT22;13725;51.170;4.442;2022-12-29T01:20:47;11.30;99.90
25923;DHT22;13725;51.170;4.442;2022-12-29T01:23:12;11.30;99.90
25923;DHT22;13725;51.170;4.442;2022-12-29T01:25:38;11.20;99.90
25923;DHT22;13725;51.170;4.442;2022-12-29T01:28:04;11.20;99.90
25923;DHT22;13725;51.170;4.442;2022-12-29T01:30:30;11.30;99.90
25923;DHT22;13725;51.170;4.442;2022-12-29T01:32:55;11.30;99.90
25923;DHT22;13725;51.170;4.442;2022-12-29T01:35:21;11.50;99.90
25923;DHT22;13725;51.170;4.442;2022-12-29T01:37:47;11.50;99.90
25923;DHT22;13725;51.170;4.442;2022-12-29T01:40:14;11.50;99.90
25923;DHT22;13725;51.170;4.442;2022-12-29T01:42:39;11.50;99.90
25923;DHT22;13725;51.170;4.442;2022-12-29T01:45:11;11.60;99.90
25923;DHT22;13725;51.170;4.442;2022-12-29T01:47:50;11.50;99.90
25923;DHT22;13725;51.170;4.442;2022-12-29T01:50:26;11.40;99.90
25923;DHT22;13725;51.170;4.442;2022-12-29T01:55:36;11.40;99.90
25923;DHT22;13725;51.170;4.442;2022-12-29T01:58:04;11.30;99.90
25923;DHT22;13725;51.170;4.442;2022-12-29T02:00:31;11.20;99.90
25923;DHT22;13725;51.170;4.442;2022-12-29T02:02:57;11.10;99.90
25923;DHT22;13725;51.170;4.442;2022-12-29T02:05:28;11.00;99.90
25923;DHT22;13725;51.170;4.442;2022-12-29T02:07:56;11.00;99.90
25923;DHT22;13725;51.170;4.442;2022-12-29T02:10:24;11.00;99.90
25923;DHT22;13725;51.170;4.442;2022-12-29T02:12:51;11.10;99.90
25923;DHT22;13725;51.170;4.442;2022-12-29T02:15:17;10.90;99.90
25923;DHT22;13725;51.170;4.442;2022-12-29T02:17:59;10.80;99.90
25923;DHT22;13725;51.170;4.442;2022-12-29T02:31:46;11.00;99.90
25923;DHT22;13725;51.170;4.442;2022-12-29T02:34:25;10.90;99.90
25923;DHT22;13725;51.170;4.442;2022-12-29T02:37:09;10.90;99.90
25923;DHT22;13725;51.170;4.442;2022-12-29T02:45:45;10.80;99.90
25923;DHT22;13725;51.170;4.442;2022-12-29T02:50:57;10.80;99.90
25923;DHT22;13725;51.170;4.442;2022-12-29T02:53:25;10.90;99.90
25923;DHT22;13725;51.170;4.442;2022-12-29T02:56:10;10.90;99.90
25923;DHT22;13725;51.170;4.442;2022-12-29T02:58:36;10.80;99.90
25923;DHT22;13725;51.170;4.442;2022-12-29T03:03:48;10.80;99.90
25923;DHT22;13725;51.170;4.442;2022-12-29T03:06:39;10.80;99.90
25923;DHT22;13725;51.170;4.442;2022-12-29T03:15:43;10.70;99.90
25923;DHT22;13725;51.170;4.442;2022-12-29T03:21:38;10.60;99.90
25923;DHT22;13725;51.170;4.442;2022-12-29T03:24:29;10.70;99.90
25923;DHT22;13725;51.170;4.442;2022-12-29T03:26:58;10.70;99.90
25923;DHT22;13725;51.170;4.442;2022-12-29T03:29:30;10.70;99.90
25923;DHT22;13725;51.170;4.442;2022-12-29T03:31:59;10.70;99.90
25923;DHT22;13725;51.170;4.442;2022-12-29T03:34:26;10.70;99.90
25923;DHT22;13725;51.170;4.442;2022-12-29T03:37:08;10.70;99.90
25923;DHT22;13725;51.170;4.442;2022-12-29T03:39:35;10.70;99.90
25923;DHT22;13725;51.170;4.442;2022-12-29T03:42:04;10.70;99.90
25923;DHT22;13725;51.170;4.442;2022-12-29T03:44:37;10.70;99.90
25923;DHT22;13725;51.170;4.442;2022-12-29T03:47:03;10.70;99.90
25923;DHT22;13725;51.170;4.442;2022-12-29T03:49:29;10.70;99.90
25923;DHT22;13725;51.170;4.442;2022-12-29T03:51:55;10.80;99.90
25923;DHT22;13725;51.170;4.442;2022-12-29T03:54:22;10.80;99.90
25923;DHT22;13725;51.170;4.442;2022-12-29T03:56:48;10.90;99.90
25923;DHT22;13725;51.170;4.442;2022-12-29T03:59:19;10.80;99.90
25923;DHT22;13725;51.170;4.442;2022-12-29T04:01:45;10.80;99.90
25923;DHT22;13725;51.170;4.442;2022-12-29T04:04:12;10.70;99.90
25923;DHT22;13725;51.170;4.442;2022-12-29T04:06:37;10.70;99.90
25923;DHT22;13725;51.170;4.442;2022-12-29T04:09:06;10.70;99.90
25923;DHT22;13725;51.170;4.442;2022-12-29T04:11:37;10.70;99.90
25923;DHT22;13725;51.170;4.442;2022-12-29T04:14:04;10.50;99.90
25923;DHT22;13725;51.170;4.442;2022-12-29T04:16:32;10.60;99.90
25923;DHT22;13725;51.170;4.442;2022-12-29T04:19:02;10.40;99.90
25923;DHT22;13725;51.170;4.442;2022-12-29T04:21:28;10.50;99.90
25923;DHT22;13725;51.170;4.442;2022-12-29T04:23:53;10.40;99.90
25923;DHT22;13725;51.170;4.442;2022-12-29T04:26:19;10.40;99.90
25923;DHT22;13725;51.170;4.442;2022-12-29T04:29:14;10.40;99.90
25923;DHT22;13725;51.170;4.442;2022-12-29T04:31:54;10.20;99.90
25923;DHT22;13725;51.170;4.442;2022-12-29T04:34:20;10.20;99.90
25923;DHT22;13725;51.170;4.442;2022-12-29T04:36:47;10.10;99.90
25923;DHT22;13725;51.170;4.442;2022-12-29T04:39:12;10.20;99.90
25923;DHT22;13725;51.170;4.442;2022-12-29T04:41:40;10.40;99.90
25923;DHT22;13725;51.170;4.442;2022-12-29T04:44:08;10.40;99.90
25923;DHT22;13725;51.170;4.442;2022-12-29T04:46:54;10.50;99.90
25923;DHT22;13725;51.170;4.442;2022-12-29T04:49:42;10.80;99.90
25923;DHT22;13725;51.170;4.442;2022-12-29T04:52:28;10.70;99.90
25923;DHT22;13725;51.170;4.442;2022-12-29T04:54:54;10.80;99.90
25923;DHT22;13725;51.170;4.442;2022-12-29T04:57:21;10.70;99.90
25923;DHT22;13725;51.170;4.442;2022-12-29T04:59:51;10.80;99.90
25923;DHT22;13725;51.170;4.442;2022-12-29T05:02:17;10.80;99.90
25923;DHT22;13725;51.170;4.442;2022-12-29T05:04:44;10.70;99.90
25923;DHT22;13725;51.170;4.442;2022-12-29T05:07:11;10.70;99.90
25923;DHT22;13725;51.170;4.442;2022-12-29T05:09:37;10.80;99.90
25923;DHT22;13725;51.170;4.442;2022-12-29T05:12:03;10.70;99.90
25923;DHT22;13725;51.170;4.442;2022-12-29T05:14:30;10.70;99.90
25923;DHT22;13725;51.170;4.442;2022-12-29T05:16:56;10.70;99.90
25923;DHT22;13725;51.170;4.442;2022-12-29T05:19:23;10.80;99.90
25923;DHT22;13725;51.170;4.442;2022-12-29T05:21:49;10.70;99.90
25923;DHT22;13725;51.170;4.442;2022-12-29T05:24:15;10.70;99.90
25923;DHT22;13725;51.170;4.442;2022-12-29T05:26:41;10.70;99.90
25923;DHT22;13725;51.170;4.442;2022-12-29T05:29:33;10.50;99.90
25923;DHT22;13725;51.170;4.442;2022-12-29T05:31:59;10.40;99.90
25923;DHT22;13725;51.170;4.442;2022-12-29T05:34:26;10.60;99.90
25923;DHT22;13725;51.170;4.442;2022-12-29T05:36:52;10.60;99.90
25923;DHT22;13725;51.170;4.442;2022-12-29T05:39:18;10.80;99.90
25923;DHT22;13725;51.170;4.442;2022-12-29T05:41:49;10.60;99.90
25923;DHT22;13725;51.170;4.442;2022-12-29T05:44:15;10.60;99.90
25923;DHT22;13725;51.170;4.442;2022-12-29T05:46:49;10.70;99.90
25923;DHT22;13725;51.170;4.442;2022-12-29T05:49:19;10.70;99.90
25923;DHT22;13725;51.170;4.442;2022-12-29T05:52:03;10.70;99.90
25923;DHT22;13725;51.170;4.442;2022-12-29T05:54:31;10.70;99.90
25923;DHT22;13725;51.170;4.442;2022-12-29T05:56:57;10.70;99.90
25923;DHT22;13725;51.170;4.442;2022-12-29T05:59:23;10.70;99.90
25923;DHT22;13725;51.170;4.442;2022-12-29T06:01:49;10.80;99.90
25923;DHT22;13725;51.170;4.442;2022-12-29T06:04:15;10.70;99.90
25923;DHT22;13725;51.170;4.442;2022-12-29T06:06:41;10.70;99.90
25923;DHT22;13725;51.170;4.442;2022-12-29T06:09:13;10.70;99.90
25923;DHT22;13725;51.170;4.442;2022-12-29T06:11:40;10.70;99.90
25923;DHT22;13725;51.170;4.442;2022-12-29T06:14:05;10.70;99.90
25923;DHT22;13725;51.170;4.442;2022-12-29T06:16:32;10.70;99.90
25923;DHT22;13725;51.170;4.442;2022-12-29T06:19:00;10.80;99.90
25923;DHT22;13725;51.170;4.442;2022-12-29T06:21:26;10.70;99.90
25923;DHT22;13725;51.170;4.442;2022-12-29T06:23:51;10.70;99.90
25923;DHT22;13725;51.170;4.442;2022-12-29T06:26:18;10.70;99.90
25923;DHT22;13725;51.170;4.442;2022-12-29T06:28:46;10.80;99.90
25923;DHT22;13725;51.170;4.442;2022-12-29T06:31:12;10.70;99.90
25923;DHT22;13725;51.170;4.442;2022-12-29T06:33:39;10.60;99.90
25923;DHT22;13725;51.170;4.442;2022-12-29T06:36:05;10.70;99.90
25923;DHT22;13725;51.170;4.442;2022-12-29T06:38:31;10.70;99.90
25923;DHT22;13725;51.170;4.442;2022-12-29T06:40:58;10.70;99.90
25923;DHT22;13725;51.170;4.442;2022-12-29T06:43:42;10.70;99.90
25923;DHT22;13725;51.170;4.442;2022-12-29T06:46:15;10.50;99.90
25923;DHT22;13725;51.170;4.442;2022-12-29T06:48:41;10.60;99.90
25923;DHT22;13725;51.170;4.442;2022-12-29T06:51:08;10.60;99.90
25923;DHT22;13725;51.170;4.442;2022-12-29T06:53:33;10.80;99.90
25923;DHT22;13725;51.170;4.442;2022-12-29T06:55:59;10.70;99.90
25923;DHT22;13725;51.170;4.442;2022-12-29T06:58:25;10.80;99.90
25923;DHT22;13725;51.170;4.442;2022-12-29T07:00:51;10.80;99.90
25923;DHT22;13725;51.170;4.442;2022-12-29T07:03:17;10.70;99.90
25923;DHT22;13725;51.170;4.442;2022-12-29T07:05:42;10.80;99.90
25923;DHT22;13725;51.170;4.442;2022-12-29T07:08:08;10.80;99.90
25923;DHT22;13725;51.170;4.442;2022-12-29T07:10:34;10.80;99.90
25923;DHT22;13725;51.170;4.442;2022-12-29T07:12:59;10.70;99.90
25923;DHT22;13725;51.170;4.442;2022-12-29T07:15:25;10.80;99.90
25923;DHT22;13725;51.170;4.442;2022-12-29T07:17:51;10.80;99.90
25923;DHT22;13725;51.170;4.442;2022-12-29T07:20:17;11.00;99.90
25923;DHT22;13725;51.170;4.442;2022-12-29T07:22:43;10.80;99.90
25923;DHT22;13725;51.170;4.442;2022-12-29T07:25:09;10.70;99.90
25923;DHT22;13725;51.170;4.442;2022-12-29T07:27:34;10.60;99.90
25923;DHT22;13725;51.170;4.442;2022-12-29T07:30:00;10.60;99.90
25923;DHT22;13725;51.170;4.442;2022-12-29T07:32:26;10.60;99.90
25923;DHT22;13725;51.170;4.442;2022-12-29T07:34:52;10.70;99.90
25923;DHT22;13725;51.170;4.442;2022-12-29T07:37:18;10.80;99.90
25923;DHT22;13725;51.170;4.442;2022-12-29T07:39:44;10.80;99.90
25923;DHT22;13725;51.170;4.442;2022-12-29T07:42:09;11.10;99.90
25923;DHT22;13725;51.170;4.442;2022-12-29T07:44:41;11.00;99.90
25923;DHT22;13725;51.170;4.442;2022-12-29T07:47:32;10.90;99.90
25923;DHT22;13725;51.170;4.442;2022-12-29T07:49:58;10.90;99.90
25923;DHT22;13725;51.170;4.442;2022-12-29T07:52:23;10.90;99.90
25923;DHT22;13725;51.170;4.442;2022-12-29T07:54:49;10.90;99.90
25923;DHT22;13725;51.170;4.442;2022-12-29T07:57:15;10.90;99.90
25923;DHT22;13725;51.170;4.442;2022-12-29T07:59:41;11.00;99.90
25923;DHT22;13725;51.170;4.442;2022-12-29T08:02:10;11.10;99.90
25923;DHT22;13725;51.170;4.442;2022-12-29T08:04:36;11.10;99.90
25923;DHT22;13725;51.170;4.442;2022-12-29T08:07:02;11.10;99.90
25923;DHT22;13725;51.170;4.442;2022-12-29T08:09:28;11.00;99.90
25923;DHT22;13725;51.170;4.442;2022-12-29T08:11:54;11.00;99.90
25923;DHT22;13725;51.170;4.442;2022-12-29T08:14:20;11.00;99.90
25923;DHT22;13725;51.170;4.442;2022-12-29T08:16:46;11.30;99.90
25923;DHT22;13725;51.170;4.442;2022-12-29T08:19:12;11.20;99.90
25923;DHT22;13725;51.170;4.442;2022-12-29T08:21:38;11.10;99.90
25923;DHT22;13725;51.170;4.442;2022-12-29T08:24:04;11.00;99.90
25923;DHT22;13725;51.170;4.442;2022-12-29T08:26:30;11.00;99.90
25923;DHT22;13725;51.170;4.442;2022-12-29T08:28:56;10.90;99.90
25923;DHT22;13725;51.170;4.442;2022-12-29T08:31:22;11.00;99.90
25923;DHT22;13725;51.170;4.442;2022-12-29T08:33:48;10.80;99.90
25923;DHT22;13725;51.170;4.442;2022-12-29T08:36:14;10.80;99.90
25923;DHT22;13725;51.170;4.442;2022-12-29T08:38:40;10.90;99.90
25923;DHT22;13725;51.170;4.442;2022-12-29T08:41:06;10.80;99.90
25923;DHT22;13725;51.170;4.442;2022-12-29T08:43:32;10.90;99.90
25923;DHT22;13725;51.170;4.442;2022-12-29T08:45:58;10.50;99.90
25923;DHT22;13725;51.170;4.442;2022-12-29T08:48:25;10.30;99.90
25923;DHT22;13725;51.170;4.442;2022-12-29T08:50:51;10.30;99.90
25923;DHT22;13725;51.170;4.442;2022-12-29T08:53:18;10.20;99.90
25923;DHT22;13725;51.170;4.442;2022-12-29T08:55:53;10.20;99.90
25923;DHT22;13725;51.170;4.442;2022-12-29T08:58:19;10.30;99.90
25923;DHT22;13725;51.170;4.442;2022-12-29T09:00:45;10.20;99.90
25923;DHT22;13725;51.170;4.442;2022-12-29T09:03:11;10.20;99.90
25923;DHT22;13725;51.170;4.442;2022-12-29T09:05:37;10.20;99.90
25923;DHT22;13725;51.170;4.442;2022-12-29T09:08:03;10.00;99.90
25923;DHT22;13725;51.170;4.442;2022-12-29T09:10:30;10.00;99.90
25923;DHT22;13725;51.170;4.442;2022-12-29T09:12:55;10.00;99.90
25923;DHT22;13725;51.170;4.442;2022-12-29T09:15:21;9.80;99.90
25923;DHT22;13725;51.170;4.442;2022-12-29T09:17:47;9.90;99.90
25923;DHT22;13725;51.170;4.442;2022-12-29T09:20:15;10.00;99.90
25923;DHT22;13725;51.170;4.442;2022-12-29T09:22:42;10.00;99.90
25923;DHT22;13725;51.170;4.442;2022-12-29T09:25:08;9.90;99.90
25923;DHT22;13725;51.170;4.442;2022-12-29T09:27:35;10.00;99.90
25923;DHT22;13725;51.170;4.442;2022-12-29T09:30:02;9.80;99.90
25923;DHT22;13725;51.170;4.442;2022-12-29T09:32:28;9.80;99.90
25923;DHT22;13725;51.170;4.442;2022-12-29T09:34:54;9.80;99.90
25923;DHT22;13725;51.170;4.442;2022-12-29T09:37:20;9.80;99.90
25923;DHT22;13725;51.170;4.442;2022-12-29T09:39:47;9.80;99.90
25923;DHT22;13725;51.170;4.442;2022-12-29T09:47:19;10.10;99.90
25923;DHT22;13725;51.170;4.442;2022-12-29T09:52:46;10.00;99.90
25923;DHT22;13725;51.170;4.442;2022-12-29T09:55:25;10.20;99.90
25923;DHT22;13725;51.170;4.442;2022-12-29T09:58:08;10.00;99.90
25923;DHT22;13725;51.170;4.442;2022-12-29T10:00:38;10.00;99.90
25923;DHT22;13725;51.170;4.442;2022-12-29T10:03:16;9.90;99.90
25923;DHT22;13725;51.170;4.442;2022-12-29T10:06:05;9.70;99.90
25923;DHT22;13725;51.170;4.442;2022-12-29T10:08:48;9.70;99.90
25923;DHT22;13725;51.170;4.442;2022-12-29T10:11:37;9.80;99.90
25923;DHT22;13725;51.170;4.442;2022-12-29T10:17:46;10.00;99.90
25923;DHT22;13725;51.170;4.442;2022-12-29T10:19:53;10.30;99.90
25923;DHT22;13725;51.170;4.442;2022-12-29T10:25:18;10.10;99.90
25923;DHT22;13725;51.170;4.442;2022-12-29T10:27:48;10.00;99.90
25923;DHT22;13725;51.170;4.442;2022-12-29T10:30:14;9.80;99.90
25923;DHT22;13725;51.170;4.442;2022-12-29T10:33:04;9.80;99.90
25923;DHT22;13725;51.170;4.442;2022-12-29T10:35:36;9.90;99.90
25923;DHT22;13725;51.170;4.442;2022-12-29T10:38:27;10.10;99.90
25923;DHT22;13725;51.170;4.442;2022-12-29T10:41:18;10.00;99.90
25923;DHT22;13725;51.170;4.442;2022-12-29T10:43:48;10.10;99.90
25923;DHT22;13725;51.170;4.442;2022-12-29T10:46:20;10.20;99.90
25923;DHT22;13725;51.170;4.442;2022-12-29T10:48:46;10.10;99.90
25923;DHT22;13725;51.170;4.442;2022-12-29T10:51:24;10.20;99.90
25923;DHT22;13725;51.170;4.442;2022-12-29T10:53:58;10.20;99.90
25923;DHT22;13725;51.170;4.442;2022-12-29T10:56:43;10.40;99.90
25923;DHT22;13725;51.170;4.442;2022-12-29T11:02:00;10.70;99.90
25923;DHT22;13725;51.170;4.442;2022-12-29T11:07:17;10.50;99.90
25923;DHT22;13725;51.170;4.442;2022-12-29T11:09:44;10.80;99.90
25923;DHT22;13725;51.170;4.442;2022-12-29T11:12:21;11.10;99.90
25923;DHT22;13725;51.170;4.442;2022-12-29T11:15:01;11.40;99.90
25923;DHT22;13725;51.170;4.442;2022-12-29T11:17:28;11.40;99.90
25923;DHT22;13725;51.170;4.442;2022-12-29T11:19:54;11.50;99.90
25923;DHT22;13725;51.170;4.442;2022-12-29T11:22:26;11.30;99.90
25923;DHT22;13725;51.170;4.442;2022-12-29T11:24:54;11.30;99.90
25923;DHT22;13725;51.170;4.442;2022-12-29T11:27:25;11.30;99.90
25923;DHT22;13725;51.170;4.442;2022-12-29T11:29:53;11.30;99.90
25923;DHT22;13725;51.170;4.442;2022-12-29T11:32:24;11.50;99.90
25923;DHT22;13725;51.170;4.442;2022-12-29T11:34:50;11.50;99.90
25923;DHT22;13725;51.170;4.442;2022-12-29T11:37:19;11.60;99.90
25923;DHT22;13725;51.170;4.442;2022-12-29T11:39:59;11.60;99.90
25923;DHT22;13725;51.170;4.442;2022-12-29T11:42:57;11.70;99.90
25923;DHT22;13725;51.170;4.442;2022-12-29T11:45:24;11.70;99.90
25923;DHT22;13725;51.170;4.442;2022-12-29T11:47:54;11.80;99.90
25923;DHT22;13725;51.170;4.442;2022-12-29T11:50:25;11.70;99.90
25923;DHT22;13725;51.170;4.442;2022-12-29T11:53:01;11.60;99.90
25923;DHT22;13725;51.170;4.442;2022-12-29T11:55:28;11.60;99.90
25923;DHT22;13725;51.170;4.442;2022-12-29T11:57:58;11.60;99.90
25923;DHT22;13725;51.170;4.442;2022-12-29T12:00:25;11.50;99.90
25923;DHT22;13725;51.170;4.442;2022-12-29T12:03:05;11.60;99.90
25923;DHT22;13725;51.170;4.442;2022-12-29T12:08:12;11.50;99.90
25923;DHT22;13725;51.170;4.442;2022-12-29T12:11:31;11.50;99.90
25923;DHT22;13725;51.170;4.442;2022-12-29T12:13:58;11.70;99.90
25923;DHT22;13725;51.170;4.442;2022-12-29T12:16:37;11.60;99.90
25923;DHT22;13725;51.170;4.442;2022-12-29T12:19:23;11.50;99.90
25923;DHT22;13725;51.170;4.442;2022-12-29T12:21:56;11.50;99.90
25923;DHT22;13725;51.170;4.442;2022-12-29T12:24:36;11.30;99.90
25923;DHT22;13725;51.170;4.442;2022-12-29T12:27:31;11.30;99.90
25923;DHT22;13725;51.170;4.442;2022-12-29T12:32:44;10.90;99.90
25923;DHT22;13725;51.170;4.442;2022-12-29T12:38:10;10.40;99.90
25923;DHT22;13725;51.170;4.442;2022-12-29T12:52:09;10.00;99.90
25923;DHT22;13725;51.170;4.442;2022-12-29T12:57:40;10.00;99.90
25923;DHT22;13725;51.170;4.442;2022-12-29T13:00:17;9.90;99.90
25923;DHT22;13725;51.170;4.442;2022-12-29T13:06:09;9.70;99.90
25923;DHT22;13725;51.170;4.442;2022-12-29T13:17:09;10.10;99.90
25923;DHT22;13725;51.170;4.442;2022-12-29T13:22:41;10.40;99.90
25923;DHT22;13725;51.170;4.442;2022-12-29T13:25:27;10.40;99.90
25923;DHT22;13725;51.170;4.442;2022-12-29T13:28:09;10.30;99.90
25923;DHT22;13725;51.170;4.442;2022-12-29T13:36:03;10.00;99.90
25923;DHT22;13725;51.170;4.442;2022-12-29T13:41:00;9.90;99.90
25923;DHT22;13725;51.170;4.442;2022-12-29T13:43:29;9.90;99.90
25923;DHT22;13725;51.170;4.442;2022-12-29T13:46:21;9.80;99.90
25923;DHT22;13725;51.170;4.442;2022-12-29T13:48:53;9.90;99.90
25923;DHT22;13725;51.170;4.442;2022-12-29T13:51:21;9.80;99.90
25923;DHT22;13725;51.170;4.442;2022-12-29T13:54:11;9.80;99.90
25923;DHT22;13725;51.170;4.442;2022-12-29T13:57:22;9.70;99.90
25923;DHT22;13725;51.170;4.442;2022-12-29T13:59:56;9.80;99.90
25923;DHT22;13725;51.170;4.442;2022-12-29T14:02:37;9.80;99.90
25923;DHT22;13725;51.170;4.442;2022-12-29T14:07:58;9.80;99.90
25923;DHT22;13725;51.170;4.442;2022-12-29T14:10:45;9.70;99.90
25923;DHT22;13725;51.170;4.442;2022-12-29T14:13:23;9.70;99.90
25923;DHT22;13725;51.170;4.442;2022-12-29T14:15:59;9.60;99.90
25923;DHT22;13725;51.170;4.442;2022-12-29T14:18:27;9.60;99.90
25923;DHT22;13725;51.170;4.442;2022-12-29T14:20:58;9.50;99.90
25923;DHT22;13725;51.170;4.442;2022-12-29T14:23:43;9.60;99.90
25923;DHT22;13725;51.170;4.442;2022-12-29T14:28:54;9.40;99.90
25923;DHT22;13725;51.170;4.442;2022-12-29T14:36:37;9.40;99.90
25923;DHT22;13725;51.170;4.442;2022-12-29T14:39:04;9.30;99.90
25923;DHT22;13725;51.170;4.442;2022-12-29T14:41:59;9.50;99.90
25923;DHT22;13725;51.170;4.442;2022-12-29T14:44:26;9.20;99.90
25923;DHT22;13725;51.170;4.442;2022-12-29T14:46:58;9.20;99.90
25923;DHT22;13725;51.170;4.442;2022-12-29T14:49:31;9.20;99.90
25923;DHT22;13725;51.170;4.442;2022-12-29T14:52:15;9.10;99.90
25923;DHT22;13725;51.170;4.442;2022-12-29T14:54:45;9.10;99.90
25923;DHT22;13725;51.170;4.442;2022-12-29T14:57:34;9.10;99.90
25923;DHT22;13725;51.170;4.442;2022-12-29T15:02:54;9.00;99.90
25923;DHT22;13725;51.170;4.442;2022-12-29T15:05:50;8.90;99.90
25923;DHT22;13725;51.170;4.442;2022-12-29T15:08:20;8.90;99.90
25923;DHT22;13725;51.170;4.442;2022-12-29T15:11:03;8.90;99.90
25923;DHT22;13725;51.170;4.442;2022-12-29T15:13:34;8.90;99.90
25923;DHT22;13725;51.170;4.442;2022-12-29T15:16:00;9.00;99.90
25923;DHT22;13725;51.170;4.442;2022-12-29T15:18:33;9.00;99.90
25923;DHT22;13725;51.170;4.442;2022-12-29T15:21:04;9.10;99.90
25923;DHT22;13725;51.170;4.442;2022-12-29T15:23:32;9.00;99.90
25923;DHT22;13725;51.170;4.442;2022-12-29T15:26:01;9.00;99.90
25923;DHT22;13725;51.170;4.442;2022-12-29T15:28:42;9.00;99.90
25923;DHT22;13725;51.170;4.442;2022-12-29T15:31:22;8.80;99.90
25923;DHT22;13725;51.170;4.442;2022-12-29T15:33:52;8.70;99.90
25923;DHT22;13725;51.170;4.442;2022-12-29T15:36:23;8.70;99.90
25923;DHT22;13725;51.170;4.442;2022-12-29T15:38:50;8.60;99.90
25923;DHT22;13725;51.170;4.442;2022-12-29T15:41:39;8.60;99.90
25923;DHT22;13725;51.170;4.442;2022-12-29T15:44:28;8.60;99.90
25923;DHT22;13725;51.170;4.442;2022-12-29T15:46:55;8.60;99.90
25923;DHT22;13725;51.170;4.442;2022-12-29T15:49:22;8.70;99.90
25923;DHT22;13725;51.170;4.442;2022-12-29T15:51:49;8.70;99.90
25923;DHT22;13725;51.170;4.442;2022-12-29T15:54:17;8.70;99.90
25923;DHT22;13725;51.170;4.442;2022-12-29T15:56:44;8.80;99.90
25923;DHT22;13725;51.170;4.442;2022-12-29T15:59:25;9.00;99.90
25923;DHT22;13725;51.170;4.442;2022-12-29T16:01:51;8.90;99.90
25923;DHT22;13725;51.170;4.442;2022-12-29T16:04:17;8.80;99.90
25923;DHT22;13725;51.170;4.442;2022-12-29T16:07:04;8.90;99.90
25923;DHT22;13725;51.170;4.442;2022-12-29T16:11:59;8.70;99.90
25923;DHT22;13725;51.170;4.442;2022-12-29T16:14:41;8.80;99.90
25923;DHT22;13725;51.170;4.442;2022-12-29T16:17:17;8.90;99.90
25923;DHT22;13725;51.170;4.442;2022-12-29T16:19:57;8.70;99.90
25923;DHT22;13725;51.170;4.442;2022-12-29T16:24:59;8.60;99.90
25923;DHT22;13725;51.170;4.442;2022-12-29T16:27:36;8.50;99.90
25923;DHT22;13725;51.170;4.442;2022-12-29T16:30:05;8.50;99.90
25923;DHT22;13725;51.170;4.442;2022-12-29T16:32:32;8.40;99.90
25923;DHT22;13725;51.170;4.442;2022-12-29T16:35:19;8.50;99.90
25923;DHT22;13725;51.170;4.442;2022-12-29T16:37:45;8.50;99.90
25923;DHT22;13725;51.170;4.442;2022-12-29T16:42:45;8.40;99.90
25923;DHT22;13725;51.170;4.442;2022-12-29T16:47:49;8.30;99.90
25923;DHT22;13725;51.170;4.442;2022-12-29T16:50:36;8.20;99.90
25923;DHT22;13725;51.170;4.442;2022-12-29T16:53:03;8.20;99.90
25923;DHT22;13725;51.170;4.442;2022-12-29T16:55:29;8.40;99.90
25923;DHT22;13725;51.170;4.442;2022-12-29T16:57:57;8.20;99.90
25923;DHT22;13725;51.170;4.442;2022-12-29T17:00:26;8.20;99.90
25923;DHT22;13725;51.170;4.442;2022-12-29T17:02:56;8.10;99.90
25923;DHT22;13725;51.170;4.442;2022-12-29T17:05:22;8.00;99.90
25923;DHT22;13725;51.170;4.442;2022-12-29T17:07:49;8.10;99.90
25923;DHT22;13725;51.170;4.442;2022-12-29T17:10:16;8.30;99.90
25923;DHT22;13725;51.170;4.442;2022-12-29T17:12:43;8.00;99.90
25923;DHT22;13725;51.170;4.442;2022-12-29T17:20:18;8.00;99.90
25923;DHT22;13725;51.170;4.442;2022-12-29T17:22:45;8.00;99.90
25923;DHT22;13725;51.170;4.442;2022-12-29T17:25:13;8.00;99.90
25923;DHT22;13725;51.170;4.442;2022-12-29T17:27:43;8.00;99.90
25923;DHT22;13725;51.170;4.442;2022-12-29T17:30:12;8.00;99.90
25923;DHT22;13725;51.170;4.442;2022-12-29T17:32:43;8.00;99.90
25923;DHT22;13725;51.170;4.442;2022-12-29T17:35:15;7.90;99.90
25923;DHT22;13725;51.170;4.442;2022-12-29T17:37:41;8.00;99.90
25923;DHT22;13725;51.170;4.442;2022-12-29T17:40:21;8.10;99.90
25923;DHT22;13725;51.170;4.442;2022-12-29T17:42:55;8.00;99.90
25923;DHT22;13725;51.170;4.442;2022-12-29T17:45:27;8.00;99.90
25923;DHT22;13725;51.170;4.442;2022-12-29T17:47:53;7.90;99.90
25923;DHT22;13725;51.170;4.442;2022-12-29T17:50:22;7.90;99.90
25923;DHT22;13725;51.170;4.442;2022-12-29T17:52:55;7.90;99.90
25923;DHT22;13725;51.170;4.442;2022-12-29T17:55:22;7.90;99.90
25923;DHT22;13725;51.170;4.442;2022-12-29T17:57:49;7.90;99.90
25923;DHT22;13725;51.170;4.442;2022-12-29T18:00:20;8.00;99.90
25923;DHT22;13725;51.170;4.442;2022-12-29T18:02:47;8.00;99.90
25923;DHT22;13725;51.170;4.442;2022-12-29T18:07:50;7.90;99.90
25923;DHT22;13725;51.170;4.442;2022-12-29T18:10:16;7.90;99.90
25923;DHT22;13725;51.170;4.442;2022-12-29T18:12:43;8.00;99.90
25923;DHT22;13725;51.170;4.442;2022-12-29T18:15:21;7.80;99.90